Time;durP1;ratioP1;P1;durP2;ratioP2;P2;SDS_P1;SDS_P2;PMS_P1;PMS_P2;Temp;Humidity;BMP_temperature;BMP_pressure;BME280_temperature;BME280_humidity;BME280_pressure;Samples;Min_cycle;Max_cycle;Signal;HPM_P1;HPM_P2
2022/01/23 00:00:34;;;;;;;65.75;29.90;;;3.50;99.90;;;;;;4974793;28;94558;-76
2022/01/23 00:03:02;;;;;;;57.13;26.05;;;3.50;99.90;;;;;;4972850;28;93759;-76
2022/01/23 00:05:38;;;;;;;57.80;27.02;;;3.50;99.90;;;;;;4974144;28;95304;-76
2022/01/23 00:08:05;;;;;;;69.03;27.85;;;3.50;99.90;;;;;;4972664;28;96712;-76
2022/01/23 00:10:30;;;;;;;68.38;28.73;;;3.50;99.90;;;;;;4973983;28;95417;-76
2022/01/23 00:13:08;;;;;;;56.63;26.08;;;3.50;99.90;;;;;;4974179;28;94522;-76
2022/01/23 00:18:20;;;;;;;60.83;27.40;;;3.50;99.90;;;;;;4974631;28;94432;-75
2022/01/23 00:20:46;;;;;;;60.40;27.48;;;3.50;99.90;;;;;;4972917;28;94453;-76
2022/01/23 00:23:28;;;;;;;70.75;27.70;;;3.50;99.90;;;;;;4972439;28;94603;-76
2022/01/23 05:05:09;;;;;;;133.80;36.03;;;3.30;99.90;;;;;;4992137;28;95763;-78
2022/01/23 05:07:35;;;;;;;97.18;33.45;;;3.30;99.90;;;;;;4988956;28;94327;-77
2022/01/23 05:10:00;;;;;;;89.22;33.45;;;3.30;99.90;;;;;;4981700;28;94649;-78
2022/01/23 05:12:30;;;;;;;103.05;32.95;;;3.20;99.90;;;;;;4980674;28;94543;-78
2022/01/23 05:14:57;;;;;;;96.68;33.17;;;3.20;99.90;;;;;;5014481;22;94771;-76
2022/01/23 05:17:22;;;;;;;109.60;35.55;;;3.20;99.90;;;;;;4998219;28;94504;-77
2022/01/23 05:19:48;;;;;;;106.97;34.83;;;3.20;99.90;;;;;;4998219;28;93710;-76
2022/01/23 05:22:22;;;;;;;107.55;33.80;;;3.10;99.90;;;;;;4997667;28;95543;-77
2022/01/23 05:25:04;;;;;;;93.00;34.15;;;3.10;99.90;;;;;;4997703;28;94469;-78
2022/01/23 05:27:31;;;;;;;82.50;33.00;;;3.10;99.90;;;;;;4979391;28;95459;-76
2022/01/23 05:29:58;;;;;;;126.15;34.85;;;3.10;99.90;;;;;;4998024;28;94497;-76
2022/01/23 05:32:27;;;;;;;91.03;32.58;;;3.10;99.90;;;;;;4979121;28;97273;-79
2022/01/23 05:34:55;;;;;;;128.38;36.30;;;3.10;99.90;;;;;;4997749;28;94365;-76
2022/01/23 05:37:20;;;;;;;97.20;34.85;;;3.10;99.90;;;;;;4998018;28;94351;-76
2022/01/23 05:39:46;;;;;;;109.18;37.05;;;3.10;99.90;;;;;;4997664;28;94541;-77
2022/01/23 05:42:11;;;;;;;102.10;36.25;;;3.10;99.90;;;;;;4979298;28;97215;-78
2022/01/23 05:44:40;;;;;;;95.22;33.03;;;3.10;99.90;;;;;;4979665;28;96966;-77
2022/01/23 05:47:08;;;;;;;100.60;35.30;;;3.10;99.90;;;;;;4997470;28;94401;-76
2022/01/23 05:49:35;;;;;;;101.90;36.42;;;3.10;99.90;;;;;;4997479;28;94615;-77
2022/01/23 05:52:00;;;;;;;128.52;37.05;;;3.20;99.90;;;;;;5014899;28;96619;-81
2022/01/23 05:54:26;;;;;;;106.60;37.50;;;3.10;99.90;;;;;;5021782;28;94539;-82
2022/01/23 05:56:52;;;;;;;97.50;35.70;;;3.10;99.90;;;;;;5000502;28;94436;-77
2022/01/23 05:59:20;;;;;;;94.55;34.67;;;3.10;99.90;;;;;;4997733;28;94808;-76
2022/01/23 06:01:46;;;;;;;102.25;35.80;;;3.10;99.90;;;;;;4997213;28;94517;-76
2022/01/23 06:04:12;;;;;;;107.20;36.25;;;3.10;99.90;;;;;;4996877;28;94627;-76
2022/01/23 06:06:38;;;;;;;140.40;36.90;;;3.10;99.90;;;;;;4997342;28;94399;-76
2022/01/23 06:09:05;;;;;;;105.90;36.65;;;3.10;99.90;;;;;;4997900;28;93775;-76
2022/01/23 06:11:30;;;;;;;133.23;37.17;;;3.20;99.90;;;;;;4996944;28;94383;-77
2022/01/23 06:13:56;;;;;;;97.53;35.45;;;3.20;99.90;;;;;;4996225;28;94649;-76
2022/01/23 06:16:21;;;;;;;113.43;34.22;;;3.20;99.90;;;;;;4996585;28;95311;-77
2022/01/23 06:18:47;;;;;;;104.35;33.75;;;3.20;99.90;;;;;;4997305;28;94402;-76
2022/01/23 06:21:18;;;;;;;106.05;35.88;;;3.20;99.90;;;;;;4996985;28;94479;-76
2022/01/23 06:23:43;;;;;;;100.70;34.20;;;3.20;99.90;;;;;;4996555;28;95275;-76
2022/01/23 06:26:09;;;;;;;102.70;35.38;;;3.20;99.90;;;;;;4997246;28;94503;-76
2022/01/23 06:28:49;;;;;;;99.88;35.72;;;3.30;99.90;;;;;;4996765;28;94328;-76
2022/01/23 06:31:15;;;;;;;103.75;35.78;;;3.30;99.90;;;;;;4996665;28;95464;-76
2022/01/23 06:33:40;;;;;;;113.80;38.63;;;3.30;99.90;;;;;;4978438;28;97817;-76
2022/01/23 06:36:06;;;;;;;108.88;36.42;;;3.20;99.90;;;;;;4979355;28;94619;-76
2022/01/23 06:38:32;;;;;;;98.55;36.67;;;3.20;99.90;;;;;;4979137;28;94431;-76
2022/01/23 06:40:57;;;;;;;142.07;35.70;;;3.20;99.90;;;;;;4996499;28;95351;-76
2022/01/23 06:43:23;;;;;;;95.18;34.30;;;3.30;99.90;;;;;;4996010;28;96361;-79
2022/01/23 06:45:48;;;;;;;102.60;36.35;;;3.30;99.90;;;;;;4979018;28;94430;-76
2022/01/23 06:48:14;;;;;;;95.65;34.15;;;3.30;99.90;;;;;;4997446;28;94443;-76
2022/01/23 06:50:40;;;;;;;108.47;36.60;;;3.30;99.90;;;;;;4997111;28;97138;-76
2022/01/23 06:53:06;;;;;;;156.23;37.97;;;3.30;99.90;;;;;;4978493;28;97661;-77
2022/01/23 06:55:31;;;;;;;98.78;35.58;;;3.30;99.90;;;;;;4996395;28;94456;-76
2022/01/23 06:57:57;;;;;;;150.73;38.80;;;3.30;99.90;;;;;;4996721;28;93768;-76
2022/01/23 07:00:22;;;;;;;147.27;38.88;;;3.30;99.90;;;;;;4996310;28;95431;-76
2022/01/23 07:02:48;;;;;;;101.10;35.90;;;3.30;99.90;;;;;;4996076;28;94816;-76
2022/01/23 07:05:13;;;;;;;107.50;37.10;;;3.30;99.90;;;;;;4996084;28;95416;-76
2022/01/23 07:07:39;;;;;;;130.73;37.90;;;3.20;99.90;;;;;;4979252;28;94623;-76
2022/01/23 07:10:05;;;;;;;118.03;38.45;;;3.20;99.90;;;;;;4978607;28;96754;-76
2022/01/23 07:12:31;;;;;;;144.35;38.75;;;3.30;99.90;;;;;;4996825;28;94887;-76
2022/01/23 07:14:56;;;;;;;107.90;37.83;;;3.30;99.90;;;;;;4996755;28;94413;-76
2022/01/23 07:17:22;;;;;;;126.28;37.85;;;3.30;99.90;;;;;;4997226;28;94536;-76
2022/01/23 07:19:48;;;;;;;96.95;36.25;;;3.30;99.90;;;;;;4997318;28;94607;-76
2022/01/23 07:22:13;;;;;;;93.85;34.75;;;3.30;99.90;;;;;;4997023;28;94174;-78
2022/01/23 07:24:39;;;;;;;98.53;35.78;;;3.30;99.90;;;;;;4979348;28;94571;-76
2022/01/23 07:27:15;;;;;;;102.07;35.70;;;3.30;99.90;;;;;;4997742;28;94439;-76
2022/01/23 07:29:43;;;;;;;134.05;35.67;;;3.40;99.90;;;;;;4978906;28;98838;-76
2022/01/23 07:32:09;;;;;;;116.60;39.00;;;3.40;99.90;;;;;;4997202;28;94955;-78
2022/01/23 07:34:35;;;;;;;153.57;39.72;;;3.40;99.90;;;;;;4997312;28;94449;-77
2022/01/23 07:37:01;;;;;;;113.25;38.08;;;3.40;99.90;;;;;;4998308;28;94487;-76
2022/01/23 07:39:26;;;;;;;135.90;39.75;;;3.50;99.90;;;;;;4999331;28;95642;-79
2022/01/23 07:41:52;;;;;;;103.88;38.28;;;3.50;99.90;;;;;;4997777;28;94388;-76
2022/01/23 07:44:18;;;;;;;120.72;38.85;;;3.50;99.90;;;;;;4981634;28;94440;-77
2022/01/23 07:46:43;;;;;;;98.90;37.47;;;3.50;99.90;;;;;;4998323;28;93693;-76
2022/01/23 07:49:09;;;;;;;107.13;38.28;;;3.50;99.90;;;;;;4996675;28;94584;-76
2022/01/23 07:51:35;;;;;;;103.47;37.72;;;3.60;99.90;;;;;;4996002;28;94816;-76
2022/01/23 07:54:01;;;;;;;100.50;37.25;;;3.60;99.90;;;;;;4995266;28;95359;-76
2022/01/23 07:56:27;;;;;;;98.38;38.40;;;3.70;99.90;;;;;;4995753;28;94522;-77
2022/01/23 07:58:52;;;;;;;107.00;38.35;;;3.70;99.90;;;;;;4977541;28;98413;-77
2022/01/23 08:01:18;;;;;;;103.00;37.53;;;3.70;99.90;;;;;;4995899;28;95363;-79
2022/01/23 08:03:43;;;;;;;107.10;39.25;;;3.80;99.90;;;;;;4995404;28;94514;-76
2022/01/23 08:06:12;;;;;;;100.18;37.33;;;3.80;99.90;;;;;;4995839;28;94568;-77
2022/01/23 08:08:38;;;;;;;98.45;37.72;;;3.80;99.90;;;;;;4977390;28;98050;-76
2022/01/23 08:11:03;;;;;;;100.55;37.67;;;3.90;99.90;;;;;;4996004;28;94150;-77
2022/01/23 08:13:29;;;;;;;93.72;36.80;;;3.80;99.90;;;;;;4995216;28;94497;-78
2022/01/23 08:15:54;;;;;;;99.50;38.35;;;3.90;99.90;;;;;;4976192;28;94666;-76
2022/01/23 08:18:20;;;;;;;92.70;35.60;;;3.90;99.90;;;;;;4975362;28;97644;-77
2022/01/23 08:20:46;;;;;;;89.72;36.83;;;4.00;99.90;;;;;;4976974;28;98186;-76
2022/01/23 08:23:12;;;;;;;91.57;35.58;;;4.00;99.90;;;;;;4998059;28;94430;-79
2022/01/23 08:25:39;;;;;;;97.53;38.33;;;4.10;99.90;;;;;;4979937;28;94601;-78
2022/01/23 08:28:06;;;;;;;89.70;35.53;;;4.10;99.90;;;;;;4979599;28;97259;-78
2022/01/23 08:30:31;;;;;;;85.25;36.05;;;4.10;99.90;;;;;;4998452;28;94906;-77
2022/01/23 08:32:57;;;;;;;79.80;34.75;;;4.20;99.90;;;;;;4979609;28;94830;-78
2022/01/23 08:35:22;;;;;;;87.25;36.97;;;4.20;99.90;;;;;;4998583;28;93584;-78
2022/01/23 08:37:48;;;;;;;85.57;35.38;;;4.20;99.90;;;;;;5000827;28;95409;-77
2022/01/23 08:40:22;;;;;;;82.60;35.35;;;4.20;99.90;;;;;;4981385;28;94554;-77
2022/01/23 08:42:48;;;;;;;83.53;35.83;;;4.30;99.90;;;;;;4980729;28;95384;-77
2022/01/23 08:45:14;;;;;;;80.18;34.70;;;4.30;99.90;;;;;;4980692;28;94487;-78
2022/01/23 08:47:40;;;;;;;79.88;34.70;;;4.40;99.90;;;;;;4997813;28;94477;-78
2022/01/23 08:50:06;;;;;;;76.40;34.13;;;4.40;99.90;;;;;;4997397;28;95264;-78
2022/01/23 08:52:32;;;;;;;81.65;35.50;;;4.50;99.90;;;;;;4997643;28;94502;-80
2022/01/23 08:54:57;;;;;;;71.90;33.72;;;4.60;99.90;;;;;;4998151;28;94560;-80
2022/01/23 08:57:24;;;;;;;76.93;34.17;;;4.70;99.90;;;;;;4997975;28;95297;-78
2022/01/23 08:59:50;;;;;;;66.20;31.13;;;4.70;99.90;;;;;;4979841;28;96681;-80
2022/01/23 09:02:17;;;;;;;70.03;31.45;;;4.70;99.90;;;;;;4997721;28;94393;-78
2022/01/23 09:04:44;;;;;;;68.13;31.67;;;4.80;99.90;;;;;;4987009;28;94418;-82
2022/01/23 09:07:10;;;;;;;58.60;28.92;;;4.90;99.90;;;;;;5019862;28;95534;-80
2022/01/23 09:09:38;;;;;;;58.58;29.15;;;4.90;99.90;;;;;;5008262;28;95319;-78
2022/01/23 09:12:09;;;;;;;55.92;27.55;;;5.00;99.90;;;;;;4997169;28;94540;-79
2022/01/23 09:14:35;;;;;;;54.53;28.73;;;5.00;99.90;;;;;;4957523;28;1137110;-79
2022/01/23 09:17:02;;;;;;;56.20;28.83;;;4.90;99.90;;;;;;5002029;28;94619;-79
2022/01/23 09:19:29;;;;;;;60.45;30.13;;;4.90;99.90;;;;;;4982510;28;97549;-79
2022/01/23 09:21:56;;;;;;;56.55;28.60;;;4.90;99.90;;;;;;5001018;28;94440;-79
2022/01/23 09:24:25;;;;;;;57.35;29.30;;;5.00;99.90;;;;;;5001111;28;93769;-79
2022/01/23 09:27:01;;;;;;;60.65;29.90;;;5.10;99.90;;;;;;4998686;28;95353;-79
2022/01/23 09:29:34;;;;;;;62.97;30.13;;;5.20;99.90;;;;;;4997557;28;94525;-79
2022/01/23 09:32:02;;;;;;;55.42;28.85;;;5.20;99.90;;;;;;4995189;28;95352;-79
2022/01/23 09:34:31;;;;;;;57.55;29.83;;;5.30;99.90;;;;;;4996395;28;94537;-79
2022/01/23 09:36:59;;;;;;;57.20;29.23;;;5.30;99.90;;;;;;4997116;28;96125;-79
2022/01/23 09:39:25;;;;;;;56.10;28.92;;;5.30;99.90;;;;;;4996623;28;94886;-79
2022/01/23 09:41:56;;;;;;;54.40;28.90;;;5.30;99.90;;;;;;4979395;28;94452;-79
2022/01/23 09:44:23;;;;;;;58.97;29.23;;;5.40;99.90;;;;;;4996564;28;94470;-79
2022/01/23 09:46:49;;;;;;;50.40;26.52;;;5.50;99.90;;;;;;4996963;28;95522;-79
2022/01/23 09:49:17;;;;;;;54.90;28.02;;;5.50;99.90;;;;;;4997240;28;94880;-79
2022/01/23 09:51:45;;;;;;;50.60;27.42;;;5.60;99.90;;;;;;4997130;28;94417;-79
2022/01/23 09:54:12;;;;;;;49.85;27.23;;;5.60;99.90;;;;;;4979426;28;94592;-79
2022/01/23 09:56:40;;;;;;;50.47;26.13;;;5.70;99.90;;;;;;4978501;28;98835;-79
2022/01/23 09:59:09;;;;;;;50.60;27.60;;;5.70;99.90;;;;;;4978703;28;95396;-80
2022/01/23 10:01:36;;;;;;;51.08;27.92;;;5.90;99.90;;;;;;4996999;28;94479;-79
2022/01/23 10:04:01;;;;;;;50.13;27.58;;;6.00;99.90;;;;;;4996461;28;94391;-80
2022/01/23 10:06:27;;;;;;;46.88;25.38;;;5.90;99.90;;;;;;4996976;28;95014;-78
2022/01/23 10:08:53;;;;;;;49.17;26.27;;;5.80;99.90;;;;;;4995944;28;94724;-78
2022/01/23 10:11:19;;;;;;;56.13;31.23;;;5.90;99.90;;;;;;4996400;28;94431;-79
2022/01/23 10:13:44;;;;;;;51.30;27.08;;;6.00;99.90;;;;;;4995679;28;94091;-78
2022/01/23 10:16:10;;;;;;;49.42;27.08;;;6.20;99.90;;;;;;4977690;28;97637;-78
2022/01/23 10:18:36;;;;;;;46.50;26.00;;;6.20;99.90;;;;;;4977653;28;98018;-78
2022/01/23 10:21:02;;;;;;;48.38;27.05;;;6.40;99.90;;;;;;4995797;28;95454;-78
2022/01/23 10:23:28;;;;;;;48.97;26.50;;;6.30;99.90;;;;;;4995614;28;94494;-79
2022/01/23 10:25:54;;;;;;;45.42;26.30;;;6.30;99.90;;;;;;4995448;28;95020;-78
2022/01/23 10:28:26;;;;;;;43.38;24.80;;;6.30;99.90;;;;;;4995539;28;94805;-79
2022/01/23 10:30:55;;;;;;;47.28;25.50;;;6.50;99.90;;;;;;4996321;28;94486;-79
2022/01/23 10:33:38;;;;;;;43.67;24.83;;;6.60;99.90;;;;;;4995387;28;94486;-79
2022/01/23 10:36:05;;;;;;;41.90;25.33;;;6.60;99.90;;;;;;4995190;28;96895;-78
2022/01/23 10:38:40;;;;;;;44.53;25.40;;;6.50;99.90;;;;;;4995718;28;94255;-78
2022/01/23 10:49:50;;;;;;;48.00;24.25;;;6.50;99.90;;;;;;4992873;28;95732;-78
2022/01/23 10:52:44;;;;;;;40.72;23.23;;;6.60;99.90;;;;;;4977299;28;94754;-78
2022/01/23 10:55:30;;;;;;;37.20;22.63;;;6.80;99.90;;;;;;4995380;28;94441;-79
2022/01/23 10:58:00;;;;;;;39.20;22.20;;;6.80;99.90;;;;;;4978961;28;96982;-80
2022/01/23 11:00:32;;;;;;;31.63;19.00;;;6.70;99.90;;;;;;4997538;28;95457;-79
2022/01/23 11:03:02;;;;;;;30.92;18.58;;;6.90;99.90;;;;;;4978898;28;94553;-79
2022/01/23 11:05:48;;;;;;;34.53;20.23;;;7.00;99.90;;;;;;4996870;28;93971;-79
2022/01/23 11:08:32;;;;;;;29.77;18.60;;;7.00;99.90;;;;;;4996728;28;94541;-79
2022/01/23 11:11:06;;;;;;;31.13;19.30;;;7.00;99.90;;;;;;4978675;28;98082;-79
2022/01/23 11:19:40;;;;;;;26.00;15.40;;;7.10;99.90;;;;;;4994703;28;94664;-79
2022/01/23 11:22:06;;;;;;;26.73;15.70;;;7.10;99.90;;;;;;4994730;28;94985;-79
2022/01/23 11:24:37;;;;;;;27.70;16.98;;;7.00;99.90;;;;;;4994799;28;94437;-79
2022/01/23 11:27:04;;;;;;;28.33;17.70;;;6.90;99.90;;;;;;4994636;28;94532;-79
2022/01/23 11:29:31;;;;;;;29.95;17.17;;;7.10;99.90;;;;;;4994639;28;95536;-79
2022/01/23 11:31:57;;;;;;;28.48;17.92;;;7.20;99.90;;;;;;4995060;28;95345;-79
2022/01/23 11:34:26;;;;;;;31.48;18.65;;;7.10;99.90;;;;;;4976831;28;94635;-80
2022/01/23 11:36:52;;;;;;;27.00;17.98;;;6.90;99.90;;;;;;4979550;28;94460;-80
2022/01/23 11:39:38;;;;;;;29.73;18.23;;;6.80;99.90;;;;;;4977716;28;97947;-80
2022/01/23 11:56:38;;;;;;;27.63;16.70;;;7.50;99.90;;;;;;4996617;28;94411;-80
2022/01/23 11:59:15;;;;;;;23.60;15.88;;;7.30;99.90;;;;;;4999854;28;93654;-79
2022/01/23 12:01:42;;;;;;;28.15;17.50;;;7.50;99.90;;;;;;4999839;28;94511;-79
2022/01/23 12:04:08;;;;;;;20.70;13.70;;;7.30;99.90;;;;;;4995317;28;95297;-80
2022/01/23 12:06:39;;;;;;;22.35;14.73;;;7.10;99.90;;;;;;4977913;28;95537;-80
2022/01/23 12:09:11;;;;;;;20.05;13.82;;;7.00;99.90;;;;;;4977421;28;94441;-79
2022/01/23 12:11:41;;;;;;;23.00;14.15;;;7.10;99.90;;;;;;4995851;28;94409;-79
2022/01/23 12:16:58;;;;;;;25.92;15.57;;;7.20;99.90;;;;;;4995698;28;94603;-80
2022/01/23 12:19:26;;;;;;;27.15;16.25;;;7.40;99.90;;;;;;4977607;28;94436;-80
2022/01/23 12:21:54;;;;;;;22.95;15.18;;;7.60;99.90;;;;;;4995259;28;94333;-78
2022/01/23 12:24:22;;;;;;;25.67;15.57;;;7.60;99.90;;;;;;4976931;28;96859;-78
2022/01/23 12:26:49;;;;;;;23.73;15.32;;;7.70;99.90;;;;;;5003440;28;94448;-75
2022/01/23 12:29:28;;;;;;;23.90;15.40;;;7.70;99.90;;;;;;5002248;28;94199;-75
2022/01/23 12:32:17;;;;;;;25.13;15.82;;;7.90;99.90;;;;;;4996718;28;98294;-80
2022/01/23 12:34:56;;;;;;;24.63;15.88;;;7.90;99.90;;;;;;4998635;28;95227;-79
2022/01/23 12:37:23;;;;;;;25.35;15.85;;;8.00;99.90;;;;;;4999921;28;94596;-80
2022/01/23 12:40:29;;;;;;;23.02;15.15;;;8.00;99.90;;;;;;4999484;28;94597;-80
2022/01/23 12:43:11;;;;;;;24.45;15.15;;;8.10;99.90;;;;;;4968041;28;95625;-80
2022/01/23 12:45:52;;;;;;;22.55;14.38;;;7.80;99.90;;;;;;4983276;28;98190;-78
2022/01/23 12:48:28;;;;;;;26.20;14.90;;;7.60;99.90;;;;;;4998496;28;94335;-80
2022/01/23 12:51:01;;;;;;;22.50;14.18;;;7.50;99.90;;;;;;4980334;28;93673;-78
2022/01/23 12:53:47;;;;;;;20.70;13.30;;;7.70;99.90;;;;;;4979109;28;96744;-79
2022/01/23 12:56:14;;;;;;;20.60;13.38;;;7.80;99.90;;;;;;4980041;28;97896;-80
2022/01/23 12:58:49;;;;;;;18.98;12.93;;;7.70;99.90;;;;;;4979808;28;95507;-79
2022/01/23 13:01:21;;;;;;;19.80;12.50;;;7.60;99.90;;;;;;4998298;28;94323;-80
2022/01/23 13:03:53;;;;;;;25.15;14.30;;;7.30;99.90;;;;;;4997820;28;94432;-79
2022/01/23 13:06:55;;;;;;;21.95;14.10;;;7.50;99.90;;;;;;4999007;28;94825;-80
2022/01/23 13:12:07;;;;;;;22.58;14.23;;;7.70;99.90;;;;;;5002615;28;94636;-80
2022/01/23 13:14:56;;;;;;;18.80;12.63;;;7.90;99.90;;;;;;4999605;28;97554;-78
2022/01/23 13:18:00;;;;;;;17.77;11.48;;;8.00;99.90;;;;;;5002191;28;94818;-81
2022/01/23 13:32:07;;;;;;;16.25;9.18;;;7.90;99.90;;;;;;5000860;28;94399;-80
2022/01/23 13:35:07;;;;;;;13.68;7.57;;;7.60;99.90;;;;;;4985088;28;94507;-80
2022/01/23 13:37:38;;;;;;;9.55;6.63;;;7.60;99.90;;;;;;5002608;28;94577;-81
2022/01/23 13:40:19;;;;;;;10.07;6.85;;;7.50;99.90;;;;;;4983799;28;96132;-81
2022/01/23 13:51:22;;;;;;;10.65;6.90;;;7.30;99.90;;;;;;4999701;28;94686;-80
2022/01/23 13:59:41;;;;;;;14.70;8.35;;;7.30;99.90;;;;;;5001183;28;94641;-80
2022/01/23 14:02:33;;;;;;;12.70;8.30;;;7.30;99.90;;;;;;4984634;28;97002;-81
2022/01/23 14:05:14;;;;;;;12.20;8.30;;;7.10;99.90;;;;;;4986076;28;94620;-80
2022/01/23 14:07:57;;;;;;;14.48;9.32;;;7.10;99.90;;;;;;5003655;28;94598;-80
2022/01/23 14:10:38;;;;;;;17.17;10.27;;;7.00;99.90;;;;;;4984601;28;97143;-81
2022/01/23 14:13:11;;;;;;;14.52;9.32;;;6.90;99.90;;;;;;5002019;28;95338;-81
2022/01/23 14:15:46;;;;;;;17.73;10.45;;;6.90;99.90;;;;;;5002375;28;94613;-81
2022/01/23 14:18:17;;;;;;;18.15;11.20;;;6.80;99.90;;;;;;5001409;28;94529;-80
2022/01/23 14:21:00;;;;;;;19.08;11.60;;;6.60;99.90;;;;;;4983619;28;98864;-81
2022/01/23 14:23:26;;;;;;;15.88;9.65;;;6.50;99.90;;;;;;5002171;28;96761;-80
2022/01/23 14:25:54;;;;;;;15.55;9.25;;;6.50;99.90;;;;;;5001801;28;94483;-81
2022/01/23 14:28:28;;;;;;;18.45;9.93;;;6.50;99.90;;;;;;4984720;28;94627;-81
2022/01/23 14:30:58;;;;;;;16.17;9.45;;;6.40;99.90;;;;;;4992286;28;97076;-80
2022/01/23 14:33:32;;;;;;;16.38;10.50;;;6.40;99.90;;;;;;4990739;28;97003;-82
2022/01/23 14:35:58;;;;;;;17.77;10.15;;;6.40;99.90;;;;;;5007846;28;94391;-80
2022/01/23 14:38:27;;;;;;;20.73;11.75;;;6.40;99.90;;;;;;4991465;28;94196;-79
2022/01/23 14:41:02;;;;;;;18.48;11.48;;;6.50;99.90;;;;;;4991143;28;96762;-78
2022/01/23 14:43:39;;;;;;;16.77;10.52;;;6.50;99.90;;;;;;5007593;28;98327;-81
2022/01/23 14:46:10;;;;;;;16.35;11.02;;;6.50;99.90;;;;;;4990386;28;95490;-81
2022/01/23 14:48:40;;;;;;;17.80;11.13;;;6.50;99.90;;;;;;4990964;28;94654;-79
2022/01/23 14:51:07;;;;;;;18.33;11.40;;;6.50;99.90;;;;;;4989838;28;97213;-80
2022/01/23 14:53:38;;;;;;;15.35;8.95;;;6.50;99.90;;;;;;4989955;28;98115;-80
2022/01/23 14:56:06;;;;;;;16.20;10.35;;;6.50;99.90;;;;;;4991147;28;94564;-79
2022/01/23 14:58:33;;;;;;;13.88;8.57;;;6.50;99.90;;;;;;5008353;28;94812;-80
2022/01/23 15:01:04;;;;;;;68.30;38.88;;;6.30;99.90;;;;;;4990723;28;97340;-80
2022/01/23 15:03:31;;;;;;;15.90;9.73;;;6.30;99.90;;;;;;4989873;28;96716;-80
2022/01/23 15:05:59;;;;;;;14.23;9.77;;;6.20;99.90;;;;;;4991688;28;94386;-80
2022/01/23 15:08:25;;;;;;;15.95;9.82;;;6.20;99.90;;;;;;5009295;28;94403;-79
2022/01/23 15:10:56;;;;;;;19.02;14.15;;;6.10;99.90;;;;;;5006033;28;95331;-79
2022/01/23 15:13:23;;;;;;;19.27;12.52;;;6.10;99.90;;;;;;4990351;28;97784;-81
2022/01/23 15:15:51;;;;;;;14.77;9.52;;;6.00;99.90;;;;;;5009531;28;94350;-80
2022/01/23 15:18:17;;;;;;;14.07;8.68;;;6.00;99.90;;;;;;4992387;28;94050;-81
2022/01/23 15:20:43;;;;;;;13.95;7.95;;;6.00;99.90;;;;;;4992100;28;97481;-81
2022/01/23 15:23:10;;;;;;;10.95;7.95;;;6.00;99.90;;;;;;4992396;28;94919;-81
2022/01/23 15:25:37;;;;;;;10.98;7.30;;;5.90;99.90;;;;;;4985175;28;94418;-80
2022/01/23 15:28:08;;;;;;;11.20;6.43;;;5.90;99.90;;;;;;5009609;28;93853;-79
2022/01/23 15:30:36;;;;;;;13.93;8.45;;;5.90;99.90;;;;;;4989852;28;96677;-79
2022/01/23 15:33:03;;;;;;;12.45;7.40;;;5.80;99.90;;;;;;5006731;28;95064;-77
2022/01/23 15:35:29;;;;;;;12.65;8.10;;;5.70;99.90;;;;;;5006320;28;95006;-78
2022/01/23 15:37:55;;;;;;;10.82;7.18;;;5.70;99.90;;;;;;4989257;28;94383;-80
2022/01/23 15:40:22;;;;;;;10.13;6.03;;;5.70;99.90;;;;;;4991167;28;97261;-80
2022/01/23 15:42:50;;;;;;;10.52;5.97;;;5.60;99.90;;;;;;4992784;28;96420;-79
2022/01/23 15:45:17;;;;;;;9.35;5.70;;;5.60;99.90;;;;;;5014054;28;94603;-80
2022/01/23 15:47:43;;;;;;;13.20;8.10;;;5.50;99.90;;;;;;5010658;28;94381;-78
2022/01/23 15:50:10;;;;;;;13.95;7.93;;;5.40;99.90;;;;;;5020826;28;95200;-75
2022/01/23 15:52:37;;;;;;;15.95;9.40;;;5.40;99.90;;;;;;5020199;28;95371;-79
2022/01/23 15:55:06;;;;;;;19.05;11.30;;;5.40;99.90;;;;;;4991667;28;94003;-80
2022/01/23 15:57:32;;;;;;;19.23;10.60;;;5.30;99.90;;;;;;5009041;28;94363;-77
2022/01/23 16:00:03;;;;;;;21.38;11.18;;;5.30;99.90;;;;;;4990455;28;98251;-79
2022/01/23 16:02:29;;;;;;;19.75;11.10;;;5.30;99.90;;;;;;4992117;28;96949;-80
2022/01/23 16:04:55;;;;;;;20.35;11.60;;;5.20;99.90;;;;;;4992377;28;94368;-80
2022/01/23 16:07:20;;;;;;;21.60;11.50;;;5.20;99.90;;;;;;4991147;28;94782;-79
2022/01/23 16:09:46;;;;;;;20.42;12.93;;;5.20;99.90;;;;;;4989969;28;97313;-80
2022/01/23 16:12:13;;;;;;;20.73;12.73;;;5.10;99.90;;;;;;4985010;28;97902;-78
2022/01/23 16:14:39;;;;;;;12.75;7.78;;;5.20;99.90;;;;;;4990826;28;94616;-79
2022/01/23 16:17:06;;;;;;;11.90;7.15;;;5.20;99.90;;;;;;5010381;28;93720;-79
2022/01/23 16:19:35;;;;;;;11.90;6.70;;;5.20;99.90;;;;;;4991967;28;96804;-81
2022/01/23 16:22:01;;;;;;;11.63;6.75;;;5.20;99.90;;;;;;4992181;28;96247;-80
2022/01/23 16:24:27;;;;;;;12.60;7.10;;;5.20;99.90;;;;;;4992827;28;95464;-79
2022/01/23 16:26:55;;;;;;;11.95;7.28;;;5.10;99.90;;;;;;4992569;28;94283;-80
2022/01/23 16:29:22;;;;;;;12.50;8.10;;;5.10;99.90;;;;;;4992764;28;97989;-80
2022/01/23 16:31:50;;;;;;;12.73;8.85;;;5.10;99.90;;;;;;4990370;28;96904;-80
2022/01/23 16:34:17;;;;;;;13.07;8.23;;;5.10;99.90;;;;;;5006440;28;94472;-79
2022/01/23 16:36:43;;;;;;;17.10;9.85;;;5.00;99.90;;;;;;4993518;28;94454;-79
2022/01/23 16:39:09;;;;;;;17.05;10.65;;;5.00;99.90;;;;;;4994054;28;97037;-80
2022/01/23 16:41:36;;;;;;;20.40;11.82;;;5.00;99.90;;;;;;4992796;28;97958;-80
2022/01/23 16:44:02;;;;;;;20.08;12.30;;;4.90;99.90;;;;;;4997549;28;94303;-80
2022/01/23 16:46:28;;;;;;;21.98;11.73;;;4.90;99.90;;;;;;5014783;28;94424;-79
2022/01/23 16:48:54;;;;;;;22.50;13.27;;;4.90;99.90;;;;;;5000121;28;98255;-80
2022/01/23 16:51:20;;;;;;;22.85;13.80;;;4.90;99.90;;;;;;5000184;28;97478;-79
2022/01/23 16:53:45;;;;;;;23.27;14.63;;;4.90;99.90;;;;;;4995298;28;93981;-80
2022/01/23 16:56:12;;;;;;;23.67;13.93;;;4.90;99.90;;;;;;4996711;28;94481;-80
2022/01/23 16:58:38;;;;;;;23.42;13.25;;;4.80;99.90;;;;;;4997756;28;96215;-78
2022/01/23 17:01:06;;;;;;;25.13;13.27;;;4.80;99.90;;;;;;4997323;28;96010;-80
2022/01/23 17:03:32;;;;;;;23.77;13.98;;;4.80;99.90;;;;;;4998140;28;94312;-78
2022/01/23 17:05:57;;;;;;;22.60;13.32;;;4.80;99.90;;;;;;4997968;28;93337;-80
2022/01/23 17:08:24;;;;;;;21.58;13.40;;;4.80;99.90;;;;;;5016417;28;95488;-79
2022/01/23 17:10:52;;;;;;;23.75;14.02;;;4.80;99.90;;;;;;4999465;28;96592;-80
2022/01/23 17:13:18;;;;;;;23.42;13.30;;;4.80;99.90;;;;;;5014155;28;95253;-83
2022/01/23 17:15:44;;;;;;;18.95;12.65;;;4.70;99.90;;;;;;4984919;28;94465;-81
2022/01/23 17:18:10;;;;;;;20.92;12.98;;;4.70;99.90;;;;;;4988279;28;97159;-80
2022/01/23 17:20:36;;;;;;;21.20;13.07;;;4.70;99.90;;;;;;5010176;28;95002;-82
2022/01/23 17:23:02;;;;;;;20.77;13.10;;;4.70;99.90;;;;;;4991385;28;94389;-79
2022/01/23 17:25:27;;;;;;;20.90;13.18;;;4.60;99.90;;;;;;5011224;28;94528;-80
2022/01/23 17:27:53;;;;;;;21.42;13.35;;;4.60;99.90;;;;;;4989305;28;97039;-81
2022/01/23 17:30:20;;;;;;;26.15;14.60;;;4.60;99.90;;;;;;4965582;28;96576;-82
2022/01/23 17:32:46;;;;;;;22.67;13.77;;;4.60;99.90;;;;;;4994948;28;94566;-82
2022/01/23 17:35:12;;;;;;;22.80;13.93;;;4.60;99.90;;;;;;4998676;28;94335;-82
2022/01/23 17:37:38;;;;;;;20.48;12.65;;;4.60;99.90;;;;;;4975095;28;98144;-83
2022/01/23 17:40:04;;;;;;;24.90;14.15;;;4.60;99.90;;;;;;5003973;28;96299;-79
2022/01/23 17:42:30;;;;;;;23.38;14.45;;;4.60;99.90;;;;;;4987419;28;94524;-79
2022/01/23 17:44:56;;;;;;;26.75;16.08;;;4.50;99.90;;;;;;4986181;28;94635;-86
2022/01/23 17:47:35;;;;;;;28.50;17.35;;;4.50;99.90;;;;;;4987266;28;96968;-79
2022/01/23 17:50:17;;;;;;;28.48;17.92;;;4.50;99.90;;;;;;4984048;28;96647;-78
2022/01/23 17:52:48;;;;;;;26.38;16.23;;;4.50;99.90;;;;;;5008012;28;93926;-79
2022/01/23 17:55:14;;;;;;;29.48;17.63;;;4.50;99.90;;;;;;4990307;28;93512;-80
2022/01/23 17:57:40;;;;;;;37.78;22.20;;;4.50;99.90;;;;;;4988090;28;96759;-82
2022/01/23 18:00:07;;;;;;;33.88;20.35;;;4.50;99.90;;;;;;4981557;28;96894;-79
2022/01/23 18:02:35;;;;;;;31.42;18.65;;;4.60;99.90;;;;;;4989265;28;95523;-79
2022/01/23 18:05:01;;;;;;;30.13;17.30;;;4.60;99.90;;;;;;4988661;28;94023;-81
2022/01/23 18:07:27;;;;;;;29.38;16.92;;;4.60;99.90;;;;;;4989468;28;97425;-80
2022/01/23 18:09:54;;;;;;;27.02;16.02;;;4.60;99.90;;;;;;4994167;28;97077;-83
2022/01/23 18:12:20;;;;;;;28.80;16.17;;;4.60;99.90;;;;;;5014263;28;94327;-82
2022/01/23 18:14:48;;;;;;;25.38;15.27;;;4.50;99.90;;;;;;4994390;28;94263;-80
2022/01/23 18:17:18;;;;;;;27.33;15.50;;;4.50;99.90;;;;;;4994162;28;96877;-84
2022/01/23 18:19:44;;;;;;;27.95;16.10;;;4.50;99.90;;;;;;4991351;28;97028;-80
2022/01/23 18:22:10;;;;;;;28.67;15.55;;;4.50;99.90;;;;;;5002352;28;94405;-80
2022/01/23 18:24:35;;;;;;;26.90;14.60;;;4.50;99.90;;;;;;4989839;28;94399;-79
2022/01/23 18:27:02;;;;;;;26.92;14.93;;;4.50;99.90;;;;;;4986578;28;99721;-78